createdAt,value
2023-04-27T00:00:52.179Z,3.90
2023-04-27T00:02:25.165Z,3.55
2023-04-27T00:03:59.932Z,3.83
2023-04-27T00:05:35.218Z,4.22
2023-04-27T00:07:08.295Z,8.63
2023-04-27T00:08:41.233Z,7.05
2023-04-27T00:10:14.114Z,7.82
2023-04-27T00:11:47.069Z,7.65
2023-04-27T00:13:20.040Z,5.88
2023-04-27T00:14:51.931Z,8.98
2023-04-27T00:16:24.928Z,14.80
2023-04-27T00:17:58.482Z,17.13
2023-04-27T00:19:33.731Z,19.77
2023-04-27T00:21:07.692Z,18.25
2023-04-27T00:22:40.967Z,13.10
2023-04-27T00:24:12.837Z,9.70
2023-04-27T00:25:45.781Z,8.32
2023-04-27T00:27:18.763Z,7.10
2023-04-27T00:28:51.724Z,8.75
2023-04-27T00:30:24.751Z,8.27
2023-04-27T00:31:56.696Z,8.00
2023-04-27T00:33:29.802Z,8.73
2023-04-27T00:35:04.208Z,9.52
2023-04-27T00:36:37.143Z,10.38
2023-04-27T00:38:10.185Z,10.32
2023-04-27T00:39:42.190Z,9.68
2023-04-27T00:41:15.143Z,7.47
2023-04-27T00:42:48.132Z,6.35
2023-04-27T00:44:24.255Z,6.20
2023-04-27T00:45:57.489Z,5.10
2023-04-27T00:47:31.583Z,4.80
2023-04-27T00:49:05.472Z,4.20
2023-04-27T00:50:40.630Z,4.57
2023-04-27T00:52:13.593Z,4.40
2023-04-27T00:53:46.605Z,4.03
2023-04-27T00:55:19.721Z,4.40
2023-04-27T00:56:53.119Z,4.45
2023-04-27T01:00:01.050Z,4.32
2023-04-27T01:01:34.281Z,4.65
2023-04-27T01:03:08.233Z,4.65
2023-04-27T01:04:42.071Z,4.60
2023-04-27T01:06:16.424Z,4.47
2023-04-27T01:07:49.364Z,4.50
2023-04-27T01:09:22.399Z,5.05
2023-04-27T01:10:55.281Z,4.10
2023-04-27T01:12:28.181Z,3.50
2023-04-27T01:14:06.005Z,3.58
2023-04-27T01:15:38.957Z,3.38
2023-04-27T01:17:12.011Z,3.17
2023-04-27T01:18:45.555Z,3.47
2023-04-27T01:21:54.567Z,3.33
2023-04-27T01:23:28.851Z,2.78
2023-04-27T01:25:01.776Z,4.10
2023-04-27T01:26:34.852Z,3.55
2023-04-27T01:28:07.758Z,3.22
2023-04-27T01:29:41.195Z,3.75
2023-04-27T01:31:14.947Z,3.80
2023-04-27T01:32:48.009Z,3.97
2023-04-27T01:34:21.037Z,3.92
2023-04-27T01:35:53.967Z,3.50
2023-04-27T01:37:27.808Z,3.75
2023-04-27T01:39:02.053Z,3.97
2023-04-27T01:40:34.033Z,4.53
2023-04-27T01:42:07.147Z,4.30
2023-04-27T01:43:39.033Z,3.80
2023-04-27T01:45:13.059Z,3.53
2023-04-27T01:46:45.096Z,3.35
2023-04-27T01:48:18.128Z,3.53
2023-04-27T01:49:51.128Z,3.50
2023-04-27T01:51:24.046Z,3.38
2023-04-27T01:52:56.940Z,3.80
2023-04-27T01:54:31.214Z,3.80
2023-04-27T01:56:04.585Z,3.58
2023-04-27T01:59:10.286Z,4.10
2023-04-27T02:00:42.195Z,3.90
2023-04-27T02:02:15.157Z,4.18
2023-04-27T02:03:48.307Z,3.60
2023-04-27T02:05:21.357Z,3.22
2023-04-27T02:06:54.268Z,3.35
2023-04-27T02:08:27.244Z,4.35
2023-04-27T02:10:01.546Z,4.38
2023-04-27T02:11:34.583Z,3.90
2023-04-27T02:13:06.595Z,3.65
2023-04-27T02:14:39.592Z,3.78
2023-04-27T02:16:12.536Z,4.47
2023-04-27T02:17:45.519Z,4.28
2023-04-27T02:19:18.449Z,3.88
2023-04-27T02:20:51.398Z,4.10
2023-04-27T02:22:23.477Z,3.63
2023-04-27T02:23:56.484Z,4.40
2023-04-27T02:25:30.816Z,3.75
2023-04-27T02:27:03.868Z,3.95
2023-04-27T02:28:38.387Z,4.45
2023-04-27T02:30:13.412Z,3.53
2023-04-27T02:31:46.921Z,3.30
2023-04-27T02:33:19.937Z,3.50
2023-04-27T02:34:52.867Z,3.60
2023-04-27T02:36:25.827Z,3.42
2023-04-27T02:37:57.784Z,3.40
2023-04-27T02:39:30.676Z,3.40
2023-04-27T02:41:05.006Z,3.40
2023-04-27T02:42:38.777Z,3.35
2023-04-27T02:44:10.785Z,3.80
2023-04-27T02:45:43.743Z,3.50
2023-04-27T02:47:16.712Z,3.60
2023-04-27T02:48:49.807Z,3.53
2023-04-27T02:50:22.752Z,3.97
2023-04-27T02:51:55.714Z,4.00
2023-04-27T02:53:28.681Z,4.15
2023-04-27T02:55:01.636Z,4.07
2023-04-27T02:56:35.965Z,4.18
2023-04-27T02:58:08.902Z,3.95
2023-04-27T02:59:41.934Z,3.90
2023-04-27T03:01:17.248Z,3.90
2023-04-27T03:02:50.357Z,4.00
2023-04-27T03:04:23.725Z,3.47
2023-04-27T03:07:28.844Z,4.80
2023-04-27T03:09:03.605Z,5.90
2023-04-27T03:10:35.548Z,5.20
2023-04-27T03:12:09.883Z,4.18
2023-04-27T03:13:42.848Z,4.40
2023-04-27T03:15:15.840Z,4.50
2023-04-27T03:16:48.815Z,4.95
2023-04-27T03:18:21.190Z,5.10
2023-04-27T03:19:54.322Z,4.70
2023-04-27T03:21:28.558Z,6.30
2023-04-27T03:23:01.474Z,7.10
2023-04-27T03:24:34.466Z,6.00
2023-04-27T03:26:08.501Z,4.70
2023-04-27T03:27:43.456Z,3.83
2023-04-27T03:29:16.391Z,3.80
2023-04-27T03:30:49.343Z,3.95
2023-04-27T03:32:22.531Z,4.68
2023-04-27T03:33:55.598Z,4.75
2023-04-27T03:35:28.681Z,5.70
2023-04-27T03:37:01.637Z,4.63
2023-04-27T03:38:36.486Z,3.85
2023-04-27T03:40:09.681Z,4.20
2023-04-27T03:41:42.562Z,3.67
2023-04-27T03:43:16.068Z,4.00
2023-04-27T03:44:49.012Z,4.13
2023-04-27T03:46:22.097Z,3.83
2023-04-27T03:47:55.098Z,4.20
2023-04-27T03:49:28.125Z,4.28
2023-04-27T03:51:01.807Z,4.32
2023-04-27T03:52:34.730Z,4.80
2023-04-27T03:54:07.652Z,5.30
2023-04-27T03:55:41.149Z,5.20
2023-04-27T03:57:14.103Z,5.13
2023-04-27T03:58:48.374Z,4.32
2023-04-27T04:00:21.706Z,4.50
2023-04-27T04:03:27.808Z,3.90
2023-04-27T04:05:01.165Z,4.10
2023-04-27T04:06:34.179Z,4.40
2023-04-27T04:08:07.089Z,4.30
2023-04-27T04:09:40.005Z,4.78
2023-04-27T04:11:11.979Z,4.75
2023-04-27T04:12:44.832Z,4.45
2023-04-27T04:14:19.107Z,4.85
2023-04-27T04:15:52.161Z,4.57
2023-04-27T04:17:25.145Z,4.60
2023-04-27T04:18:58.224Z,4.65
2023-04-27T04:20:31.151Z,5.70
2023-04-27T04:22:04.064Z,5.50
2023-04-27T04:23:37.552Z,5.18
2023-04-27T04:25:09.941Z,4.18
2023-04-27T04:26:42.847Z,4.30
2023-04-27T04:28:16.208Z,4.60
2023-04-27T04:31:23.423Z,3.90
2023-04-27T04:32:55.464Z,3.75
2023-04-27T04:34:29.216Z,4.20
2023-04-27T04:36:04.965Z,3.58
2023-04-27T04:37:37.857Z,3.85
2023-04-27T04:39:12.643Z,4.35
2023-04-27T04:40:46.143Z,4.07
